Time;durP1;ratioP1;P1;durP2;ratioP2;P2;SDS_P1;SDS_P2;PMS_P1;PMS_P2;Temp;Humidity;BMP_temperature;BMP_pressure;BME280_temperature;BME280_humidity;BME280_pressure;Samples;Min_cycle;Max_cycle;Signal;HPM_P1;HPM_P2
2022/05/05 00:00:51;;;;;;;3.13;1.15;;;14.00;52.80;;;;;;5050248;28;20048;-72
2022/05/05 00:03:17;;;;;;;1.92;0.73;;;14.00;52.80;;;;;;5049959;28;20473;-68
2022/05/05 00:05:42;;;;;;;2.67;0.60;;;14.00;52.80;;;;;;5051606;28;20136;-72
2022/05/05 00:08:09;;;;;;;2.08;0.77;;;13.90;52.80;;;;;;5049828;28;20053;-71
2022/05/05 00:16:07;;;;;;;1.10;0.50;;;13.90;52.90;;;;;;5051111;28;20048;-70
2022/05/05 00:18:32;;;;;;;2.63;0.70;;;13.90;53.00;;;;;;5087146;28;20041;-70
2022/05/05 00:21:04;;;;;;;2.33;0.57;;;13.90;53.00;;;;;;5053394;28;20127;-66
2022/05/05 00:23:29;;;;;;;1.83;0.70;;;13.90;53.00;;;;;;5054797;28;20033;-70
2022/05/05 00:25:55;;;;;;;2.03;0.45;;;13.80;52.90;;;;;;5053583;28;20044;-70
2022/05/05 00:28:21;;;;;;;1.55;0.50;;;13.90;53.00;;;;;;5054646;28;20477;-67
2022/05/05 00:30:49;;;;;;;1.42;0.55;;;13.80;52.90;;;;;;5086831;28;20056;-65
2022/05/05 00:33:15;;;;;;;1.75;0.50;;;13.80;52.90;;;;;;5053526;28;20037;-71
2022/05/05 00:35:40;;;;;;;1.90;0.82;;;13.80;52.90;;;;;;5053403;28;20037;-71
2022/05/05 00:38:06;;;;;;;3.13;0.70;;;13.80;53.00;;;;;;5054592;28;20497;-69
2022/05/05 00:40:31;;;;;;;1.85;0.57;;;13.80;53.00;;;;;;5054534;28;20123;-70
2022/05/05 00:42:59;;;;;;;2.38;0.70;;;13.80;53.00;;;;;;5053292;28;20033;-70
2022/05/05 00:45:25;;;;;;;3.28;0.63;;;13.70;53.00;;;;;;5054219;28;20086;-70
2022/05/05 00:47:50;;;;;;;3.17;1.00;;;13.70;53.00;;;;;;5054086;28;20427;-71
2022/05/05 00:50:18;;;;;;;1.83;0.50;;;13.80;53.10;;;;;;5052922;28;20476;-72
2022/05/05 00:52:44;;;;;;;2.15;0.75;;;13.70;53.10;;;;;;5053104;28;20037;-71
2022/05/05 00:55:10;;;;;;;1.40;0.68;;;13.70;53.10;;;;;;5052868;28;20369;-70
2022/05/05 00:57:37;;;;;;;2.45;0.88;;;13.70;53.10;;;;;;5086310;28;20067;-70
2022/05/05 01:00:03;;;;;;;1.60;0.60;;;13.70;53.40;;;;;;5053963;28;20496;-70
2022/05/05 01:02:30;;;;;;;0.90;0.47;;;13.70;53.10;;;;;;5086188;28;20048;-71
2022/05/05 01:04:56;;;;;;;2.60;0.70;;;13.70;53.10;;;;;;5053926;28;20043;-71
2022/05/05 01:07:25;;;;;;;3.42;0.80;;;13.70;53.20;;;;;;5054135;28;20040;-70
2022/05/05 01:09:50;;;;;;;3.13;0.82;;;13.70;53.20;;;;;;5053761;28;20507;-70
2022/05/05 01:12:16;;;;;;;2.10;0.60;;;13.70;53.20;;;;;;5086247;28;20045;-71
2022/05/05 01:14:43;;;;;;;2.03;1.00;;;13.70;53.20;;;;;;5052615;28;20075;-64
2022/05/05 01:17:10;;;;;;;2.67;0.60;;;13.60;53.10;;;;;;5052607;28;20492;-64
2022/05/05 01:19:35;;;;;;;2.95;0.63;;;13.60;53.10;;;;;;5052374;28;20049;-72
2022/05/05 01:22:03;;;;;;;1.40;0.50;;;13.70;53.20;;;;;;5052227;28;20052;-70
2022/05/05 01:30:00;;;;;;;1.52;0.50;;;13.60;53.20;;;;;;5053230;28;20045;-65
2022/05/05 01:32:33;;;;;;;3.08;0.60;;;13.60;53.40;;;;;;5053505;28;20116;-70
2022/05/05 01:34:59;;;;;;;2.58;0.98;;;13.60;53.30;;;;;;5085822;28;20041;-70
2022/05/05 01:37:25;;;;;;;1.48;0.75;;;13.60;53.30;;;;;;5052593;28;20111;-70
2022/05/05 01:39:51;;;;;;;2.67;0.40;;;13.60;53.30;;;;;;5052152;28;20131;-70
2022/05/05 01:42:17;;;;;;;1.83;0.60;;;13.60;53.30;;;;;;5053159;28;20124;-70
2022/05/05 01:44:42;;;;;;;1.58;0.60;;;13.50;53.30;;;;;;5053265;28;20041;-70
2022/05/05 01:47:08;;;;;;;1.48;0.65;;;13.50;53.30;;;;;;5053130;28;20457;-70
2022/05/05 01:49:33;;;;;;;1.95;0.85;;;13.50;53.30;;;;;;5051620;28;20120;-65
2022/05/05 01:51:59;;;;;;;2.10;1.20;;;13.50;53.30;;;;;;5051992;28;20032;-64
2022/05/05 01:54:25;;;;;;;1.80;0.70;;;13.60;53.40;;;;;;5051697;28;20443;-70
2022/05/05 01:56:51;;;;;;;4.15;0.80;;;13.50;53.30;;;;;;5085367;28;20073;-64
2022/05/05 01:59:17;;;;;;;2.03;1.15;;;13.60;53.40;;;;;;5052780;28;20091;-65
2022/05/05 02:01:42;;;;;;;1.77;0.70;;;13.50;53.30;;;;;;5051777;28;20037;-64
2022/05/05 02:04:08;;;;;;;2.53;0.75;;;13.50;53.30;;;;;;5051746;28;20055;-70
2022/05/05 02:06:35;;;;;;;2.38;0.85;;;13.50;53.30;;;;;;5051728;28;20041;-70
2022/05/05 02:09:01;;;;;;;1.70;0.75;;;13.50;53.30;;;;;;5051150;28;20052;-70
2022/05/05 02:11:26;;;;;;;2.10;0.60;;;13.50;53.30;;;;;;5051232;28;20037;-70
2022/05/05 02:13:55;;;;;;;2.53;0.80;;;13.50;53.40;;;;;;5051431;28;20041;-70
2022/05/05 02:16:20;;;;;;;1.30;0.80;;;13.50;53.40;;;;;;5052733;28;20041;-64
2022/05/05 02:18:46;;;;;;;2.35;0.70;;;13.50;53.40;;;;;;5051232;28;20041;-70
2022/05/05 02:21:11;;;;;;;1.35;0.52;;;13.40;53.30;;;;;;5051146;28;20055;-70
2022/05/05 02:23:37;;;;;;;2.38;1.25;;;13.40;53.30;;;;;;5051172;28;20041;-70
2022/05/05 02:26:03;;;;;;;1.77;0.65;;;13.40;53.40;;;;;;5052334;28;20036;-70
2022/05/05 02:28:29;;;;;;;1.75;1.10;;;13.40;53.30;;;;;;5051137;28;20128;-70
2022/05/05 02:30:55;;;;;;;2.15;0.93;;;13.50;53.40;;;;;;5052210;28;20548;-70
2022/05/05 02:33:21;;;;;;;1.45;0.80;;;13.50;53.40;;;;;;5051258;28;20040;-71
2022/05/05 02:38:42;;;;;;;3.00;0.82;;;13.40;53.30;;;;;;5050831;28;20036;-70
2022/05/05 02:38:47;;;;;;;2.17;0.75;;;13.40;53.40;;;;;;5050391;28;20140;-69
2022/05/05 02:41:13;;;;;;;;;;;13.40;53.40;;;;;;5052648;28;20041;-70
2022/05/05 02:43:39;;;;;;;1.20;0.60;;;13.40;53.50;;;;;;5052309;28;20010;-70
2022/05/05 02:46:04;;;;;;;2.55;0.88;;;13.40;53.40;;;;;;5084550;28;20473;-70
2022/05/05 02:48:30;;;;;;;1.83;0.73;;;13.40;53.40;;;;;;5050691;28;20423;-69
2022/05/05 02:50:56;;;;;;;3.70;0.98;;;13.40;53.40;;;;;;5050957;28;20040;-64
2022/05/05 02:56:10;;;;;;;2.28;0.88;;;13.40;53.40;;;;;;5050642;28;20396;-70
2022/05/05 02:58:35;;;;;;;1.23;0.70;;;13.30;53.30;;;;;;5052010;28;20049;-70
2022/05/05 03:01:01;;;;;;;1.80;0.85;;;13.30;53.30;;;;;;5050836;28;20045;-67
2022/05/05 03:03:27;;;;;;;1.88;1.00;;;13.40;53.40;;;;;;5050905;28;20595;-70
2022/05/05 03:05:52;;;;;;;1.50;0.77;;;13.40;53.40;;;;;;5051800;28;20041;-70
2022/05/05 03:08:18;;;;;;;1.40;0.60;;;13.30;53.40;;;;;;5051328;28;20052;-65
2022/05/05 03:10:43;;;;;;;1.58;0.90;;;13.30;53.40;;;;;;5050419;28;20079;-67
2022/05/05 03:13:09;;;;;;;1.15;0.50;;;13.30;53.40;;;;;;5050473;28;20040;-69
2022/05/05 03:15:35;;;;;;;2.58;0.95;;;13.30;53.40;;;;;;5050090;28;20207;-66
2022/05/05 03:18:00;;;;;;;1.80;1.08;;;13.30;53.40;;;;;;5051614;28;20044;-70
2022/05/05 03:20:26;;;;;;;2.10;0.60;;;13.30;53.40;;;;;;5050398;28;20037;-64
2022/05/05 03:22:52;;;;;;;2.30;0.52;;;13.30;53.40;;;;;;5050183;28;20048;-70
2022/05/05 03:25:17;;;;;;;2.38;0.70;;;13.30;53.40;;;;;;5050440;28;20036;-69
2022/05/05 03:27:43;;;;;;;2.63;0.60;;;13.30;53.40;;;;;;5050277;28;20049;-64
2022/05/05 03:30:10;;;;;;;1.98;1.33;;;13.30;53.50;;;;;;5051613;28;20037;-64
2022/05/05 03:32:35;;;;;;;2.20;0.90;;;13.30;53.40;;;;;;5033559;28;20478;-70
2022/05/05 03:35:01;;;;;;;2.30;0.68;;;13.20;53.40;;;;;;5050310;28;20049;-65
2022/05/05 03:37:30;;;;;;;1.50;0.65;;;13.20;53.40;;;;;;5050482;28;20068;-70
2022/05/05 03:39:56;;;;;;;1.83;0.70;;;13.20;53.40;;;;;;5084019;28;20151;-65
2022/05/05 03:42:22;;;;;;;1.60;0.75;;;13.20;53.40;;;;;;5083701;28;20560;-64
2022/05/05 03:44:47;;;;;;;1.77;0.75;;;13.20;53.40;;;;;;5051561;28;20116;-64
2022/05/05 03:47:13;;;;;;;2.38;0.93;;;13.20;53.40;;;;;;5050384;28;20455;-70
2022/05/05 03:49:45;;;;;;;2.65;1.00;;;13.20;53.50;;;;;;5083714;28;20120;-70
2022/05/05 03:52:10;;;;;;;1.60;0.70;;;13.30;53.50;;;;;;5053524;28;20051;-70
2022/05/05 03:54:36;;;;;;;1.17;0.60;;;13.20;53.50;;;;;;5055202;28;20036;-70
2022/05/05 03:57:01;;;;;;;1.65;0.77;;;13.20;53.50;;;;;;5055214;28;20068;-70
2022/05/05 03:59:27;;;;;;;2.47;0.80;;;13.20;53.50;;;;;;5053859;28;20101;-66
2022/05/05 04:01:53;;;;;;;2.33;0.55;;;13.10;53.40;;;;;;5053894;28;20090;-65
2022/05/05 04:04:19;;;;;;;1.60;1.25;;;13.20;53.40;;;;;;5054042;28;20124;-71
2022/05/05 04:06:45;;;;;;;2.10;0.90;;;13.20;53.50;;;;;;5037569;28;20073;-65
2022/05/05 04:09:11;;;;;;;1.58;0.85;;;13.10;53.40;;;;;;5053182;28;20519;-66
2022/05/05 04:11:37;;;;;;;1.92;0.70;;;13.10;53.40;;;;;;5087354;28;20045;-66
2022/05/05 04:14:06;;;;;;;2.42;0.85;;;13.10;53.50;;;;;;5055773;28;20038;-67
2022/05/05 04:16:32;;;;;;;0.95;0.50;;;13.10;53.40;;;;;;5053935;28;20166;-64
2022/05/05 04:18:58;;;;;;;2.60;0.85;;;13.10;53.40;;;;;;5087092;28;20506;-64
2022/05/05 04:21:25;;;;;;;1.67;0.70;;;13.10;53.40;;;;;;5054781;28;20045;-69
2022/05/05 04:23:51;;;;;;;2.28;0.75;;;13.10;53.40;;;;;;5054644;28;20041;-70
2022/05/05 04:26:17;;;;;;;1.83;0.85;;;13.10;53.40;;;;;;5053501;28;20476;-69
2022/05/05 04:28:46;;;;;;;2.17;0.95;;;13.10;53.40;;;;;;5086977;28;20044;-64
2022/05/05 04:31:13;;;;;;;1.38;0.68;;;13.10;53.40;;;;;;5053277;28;20045;-64
2022/05/05 04:33:40;;;;;;;0.75;0.52;;;13.10;53.40;;;;;;5053314;28;20099;-70
2022/05/05 04:36:07;;;;;;;3.05;0.90;;;13.10;53.40;;;;;;5054497;28;20523;-69
2022/05/05 04:38:34;;;;;;;1.10;0.70;;;13.10;53.40;;;;;;5053071;28;20090;-70
2022/05/05 04:41:00;;;;;;;1.88;0.60;;;13.10;53.40;;;;;;5053141;28;20492;-70
2022/05/05 04:43:29;;;;;;;1.35;1.10;;;13.10;53.40;;;;;;5054461;28;20041;-64
2022/05/05 04:45:54;;;;;;;1.42;0.82;;;13.10;53.40;;;;;;5053019;28;20381;-70
2022/05/05 04:48:20;;;;;;;2.13;1.30;;;13.10;53.40;;;;;;5052923;28;20048;-70
2022/05/05 04:50:46;;;;;;;1.33;0.60;;;13.00;53.40;;;;;;5052844;28;20083;-70
2022/05/05 04:53:11;;;;;;;2.33;0.65;;;13.00;53.40;;;;;;5054141;28;20033;-66
2022/05/05 04:55:37;;;;;;;2.13;0.45;;;13.00;53.40;;;;;;5054555;28;20040;-70
2022/05/05 04:58:03;;;;;;;1.88;0.80;;;13.00;53.40;;;;;;5052978;28;20040;-70
2022/05/05 05:00:29;;;;;;;3.67;0.95;;;13.10;53.50;;;;;;5052930;28;20540;-69
2022/05/05 05:02:56;;;;;;;1.73;0.90;;;13.10;53.40;;;;;;5053941;28;20102;-66
2022/05/05 05:05:22;;;;;;;2.05;1.17;;;13.00;53.40;;;;;;5052524;28;20044;-70
2022/05/05 05:07:47;;;;;;;3.20;1.15;;;13.00;53.40;;;;;;5052870;28;20044;-69
2022/05/05 05:10:13;;;;;;;1.13;0.77;;;13.10;53.40;;;;;;5085924;28;20163;-70
2022/05/05 05:12:41;;;;;;;1.83;0.80;;;13.00;53.40;;;;;;5086115;28;20033;-70
2022/05/05 05:15:07;;;;;;;1.65;0.70;;;13.10;53.40;;;;;;5052432;28;20048;-69
2022/05/05 05:17:33;;;;;;;1.02;0.90;;;13.00;53.40;;;;;;5053805;28;20033;-64
2022/05/05 05:19:59;;;;;;;1.52;0.63;;;13.10;53.40;;;;;;5052612;28;20048;-70
2022/05/05 05:22:25;;;;;;;2.50;0.95;;;13.00;53.40;;;;;;5052533;28;20056;-64
2022/05/05 05:24:51;;;;;;;1.73;0.80;;;13.00;53.40;;;;;;5053515;28;20096;-67
2022/05/05 05:27:16;;;;;;;2.13;1.00;;;13.00;53.40;;;;;;5053489;28;20439;-70
2022/05/05 05:29:42;;;;;;;2.22;0.50;;;13.00;53.40;;;;;;5053539;28;20044;-70
2022/05/05 05:32:11;;;;;;;0.95;0.65;;;13.00;53.40;;;;;;5052392;28;20041;-70
2022/05/05 05:34:36;;;;;;;2.20;0.80;;;13.00;53.30;;;;;;5052496;28;20074;-64
2022/05/05 05:37:03;;;;;;;3.03;0.80;;;13.00;53.30;;;;;;5053242;28;20396;-70
2022/05/05 05:39:30;;;;;;;2.67;0.90;;;13.00;53.30;;;;;;5053238;28;20148;-69
2022/05/05 05:41:56;;;;;;;1.40;0.80;;;13.00;53.30;;;;;;5085678;28;20049;-69
2022/05/05 05:44:22;;;;;;;2.13;0.70;;;13.00;53.30;;;;;;5052155;28;20454;-70
2022/05/05 05:46:50;;;;;;;3.70;1.13;;;13.10;53.30;;;;;;5051806;28;20045;-70
2022/05/05 05:49:16;;;;;;;2.60;0.80;;;13.10;53.40;;;;;;5051900;28;20036;-68
2022/05/05 05:51:42;;;;;;;3.53;0.80;;;13.10;53.40;;;;;;5051686;28;20568;-69
2022/05/05 05:54:08;;;;;;;2.28;0.98;;;13.10;53.40;;;;;;5051658;28;20037;-71
2022/05/05 05:56:33;;;;;;;1.20;0.70;;;13.10;53.40;;;;;;5085144;28;20328;-70
2022/05/05 05:59:01;;;;;;;1.38;0.95;;;13.00;53.30;;;;;;5052842;28;20353;-67
2022/05/05 06:03:53;;;;;;;2.58;1.08;;;13.10;53.40;;;;;;5052952;28;20047;-69
2022/05/05 06:04:13;;;;;;;2.13;1.00;;;13.10;53.40;;;;;;5051461;28;20567;-64
2022/05/05 06:06:41;;;;;;;2.42;1.30;;;13.10;53.40;;;;;;5052573;28;20124;-70
2022/05/05 06:09:07;;;;;;;2.65;1.58;;;13.10;53.90;;;;;;5052552;28;20056;-64
2022/05/05 06:11:32;;;;;;;3.53;1.25;;;13.10;53.50;;;;;;5052498;28;20396;-72
2022/05/05 06:13:58;;;;;;;3.90;1.98;;;13.10;53.40;;;;;;5050566;28;20037;-66
2022/05/05 06:16:24;;;;;;;3.40;1.45;;;13.10;53.40;;;;;;5052669;28;20037;-68
2022/05/05 06:18:52;;;;;;;1.67;0.93;;;13.10;53.50;;;;;;5051474;28;20594;-69
2022/05/05 06:21:18;;;;;;;4.93;1.13;;;13.10;53.40;;;;;;5051122;28;20048;-70
2022/05/05 06:23:43;;;;;;;2.40;1.40;;;13.10;53.40;;;;;;5051074;28;20041;-66
2022/05/05 06:26:09;;;;;;;2.72;0.98;;;13.20;53.40;;;;;;5051392;28;20187;-64
2022/05/05 06:28:37;;;;;;;1.67;1.13;;;13.20;53.40;;;;;;5050981;28;20044;-70
2022/05/05 06:31:04;;;;;;;2.13;1.27;;;13.20;53.40;;;;;;5051081;28;20496;-69
2022/05/05 06:33:30;;;;;;;1.63;1.08;;;13.20;53.40;;;;;;5050981;28;20033;-65
2022/05/05 06:35:55;;;;;;;1.52;0.95;;;13.20;53.30;;;;;;5051025;28;20045;-69
2022/05/05 06:38:22;;;;;;;2.30;1.05;;;13.30;53.30;;;;;;5050825;28;20053;-65
2022/05/05 06:40:48;;;;;;;1.20;0.80;;;13.30;53.20;;;;;;5052197;28;20041;-64
2022/05/05 06:43:14;;;;;;;1.98;1.10;;;13.30;53.20;;;;;;5050828;28;20098;-64
2022/05/05 06:45:39;;;;;;;2.40;1.33;;;13.30;53.20;;;;;;5052103;28;20053;-63
2022/05/05 06:48:05;;;;;;;2.25;1.30;;;13.30;53.10;;;;;;5051930;28;20029;-64
2022/05/05 06:50:31;;;;;;;3.55;0.98;;;13.30;53.50;;;;;;5052051;28;20037;-69
2022/05/05 06:53:00;;;;;;;2.28;1.00;;;13.40;53.10;;;;;;5051908;28;20119;-67
2022/05/05 06:55:26;;;;;;;1.95;0.98;;;13.40;53.00;;;;;;5050939;28;20037;-70
2022/05/05 06:57:52;;;;;;;2.75;1.25;;;13.40;52.90;;;;;;5050943;28;20041;-69
2022/05/05 07:00:18;;;;;;;2.20;1.08;;;13.40;52.90;;;;;;5050531;28;20052;-64
2022/05/05 07:02:43;;;;;;;4.88;2.00;;;13.40;52.90;;;;;;5050823;28;20072;-70
2022/05/05 07:05:24;;;;;;;2.03;0.95;;;13.50;52.80;;;;;;5050523;28;20045;-66
2022/05/05 07:07:51;;;;;;;;;;;13.50;52.80;;;;;;5084817;28;20431;-64
2022/05/05 07:13:04;;;;;;;2.45;1.23;;;13.50;52.60;;;;;;5051612;28;20041;-64
2022/05/05 07:15:29;;;;;;;1.95;0.70;;;13.60;52.60;;;;;;5050711;28;20094;-64
2022/05/05 07:17:55;;;;;;;2.35;1.38;;;13.60;52.60;;;;;;5050413;28;20116;-69
2022/05/05 07:20:21;;;;;;;2.53;0.80;;;13.80;52.60;;;;;;5050264;28;20048;-64
2022/05/05 07:22:46;;;;;;;2.72;0.85;;;13.70;52.50;;;;;;5050334;28;20037;-71
2022/05/05 07:25:12;;;;;;;3.40;1.13;;;13.70;52.40;;;;;;5052588;28;20041;-64
2022/05/05 07:27:39;;;;;;;2.72;1.10;;;13.70;52.40;;;;;;5054467;28;20141;-69
2022/05/05 07:30:08;;;;;;;1.65;0.90;;;13.70;52.40;;;;;;5055657;28;20032;-65
2022/05/05 07:32:34;;;;;;;2.22;0.90;;;13.80;52.40;;;;;;5054452;28;20077;-69
2022/05/05 07:34:59;;;;;;;1.63;0.60;;;13.80;52.40;;;;;;5054595;28;20076;-65
2022/05/05 07:37:25;;;;;;;1.85;0.88;;;13.80;52.40;;;;;;5054664;28;20396;-64
2022/05/05 07:39:51;;;;;;;1.55;0.70;;;13.80;52.40;;;;;;5055480;28;20131;-64
2022/05/05 07:42:16;;;;;;;1.63;0.77;;;13.80;52.30;;;;;;5055505;28;20489;-70
2022/05/05 07:44:42;;;;;;;1.63;0.82;;;13.80;52.30;;;;;;5054068;28;20041;-64
2022/05/05 07:47:08;;;;;;;1.90;0.63;;;13.80;52.30;;;;;;5054057;28;20048;-66
2022/05/05 07:49:33;;;;;;;1.58;0.73;;;13.80;52.20;;;;;;5054010;28;20075;-69
2022/05/05 07:51:59;;;;;;;3.13;1.00;;;13.90;52.20;;;;;;5055298;28;20067;-69
2022/05/05 07:54:43;;;;;;;1.85;0.60;;;13.90;52.10;;;;;;5054066;28;20388;-65
2022/05/05 07:57:13;;;;;;;2.50;1.27;;;13.90;52.00;;;;;;5055332;28;20052;-69
2022/05/05 07:59:44;;;;;;;1.85;0.68;;;13.90;51.90;;;;;;5054152;28;20075;-64
2022/05/05 08:02:13;;;;;;;3.45;1.17;;;14.00;51.80;;;;;;5055136;28;20408;-64
2022/05/05 08:04:40;;;;;;;4.10;0.93;;;14.10;51.70;;;;;;5055133;28;20041;-64
2022/05/05 08:07:06;;;;;;;2.70;0.50;;;14.10;51.60;;;;;;5055198;28;20431;-63
2022/05/05 08:09:31;;;;;;;2.70;0.65;;;14.20;51.40;;;;;;5053359;28;20045;-65
2022/05/05 08:11:59;;;;;;;1.80;0.82;;;14.20;51.30;;;;;;5053574;28;20040;-64
2022/05/05 08:14:26;;;;;;;1.02;0.50;;;14.30;51.10;;;;;;5055066;28;20386;-65
2022/05/05 08:16:52;;;;;;;3.33;1.33;;;14.40;51.10;;;;;;5055213;28;20044;-69
2022/05/05 08:19:18;;;;;;;1.90;0.50;;;14.40;50.90;;;;;;5053642;28;20052;-69
2022/05/05 08:21:43;;;;;;;2.70;0.70;;;14.50;50.70;;;;;;5086980;28;20036;-64
2022/05/05 08:29:43;;;;;;;2.10;0.60;;;14.60;50.30;;;;;;5054428;28;20053;-66
2022/05/05 08:32:12;;;;;;;2.45;1.17;;;14.60;50.10;;;;;;5053547;28;20047;-70
2022/05/05 08:34:37;;;;;;;2.55;0.73;;;14.70;49.90;;;;;;5053293;28;20276;-64
2022/05/05 08:37:04;;;;;;;1.92;0.75;;;14.70;49.70;;;;;;5052445;28;20056;-64
2022/05/05 08:39:29;;;;;;;1.70;0.80;;;14.80;49.70;;;;;;5087030;28;20067;-64
2022/05/05 08:41:55;;;;;;;2.53;0.50;;;14.80;49.60;;;;;;5053095;28;20037;-64
2022/05/05 08:44:21;;;;;;;3.05;0.60;;;14.90;49.60;;;;;;5054303;28;20045;-64
2022/05/05 08:46:48;;;;;;;2.60;0.70;;;14.90;49.40;;;;;;5086426;28;20041;-64
2022/05/05 08:49:17;;;;;;;1.42;0.50;;;15.00;49.50;;;;;;5054378;28;20033;-69
2022/05/05 08:51:45;;;;;;;2.58;0.50;;;15.00;49.20;;;;;;5086689;28;20087;-70
2022/05/05 08:54:16;;;;;;;1.58;0.50;;;15.10;49.00;;;;;;5052834;28;20048;-64
2022/05/05 08:56:42;;;;;;;;;;;15.20;48.90;;;;;;5086689;28;20507;-64
2022/05/05 08:59:08;;;;;;;1.73;0.60;;;15.20;49.00;;;;;;5086558;28;20198;-70
2022/05/05 09:01:38;;;;;;;1.67;0.70;;;15.30;48.70;;;;;;5054192;28;20069;-70
2022/05/05 09:04:05;;;;;;;2.90;0.60;;;15.30;48.60;;;;;;5052805;28;20041;-63
2022/05/05 09:12:13;;;;;;;2.05;1.10;;;15.50;48.00;;;;;;5151060;27;20293;-69
2022/05/05 09:14:48;;;;;;;2.40;0.60;;;15.40;47.90;;;;;;5128920;28;20057;-62
2022/05/05 09:17:16;;;;;;;1.50;0.63;;;15.50;47.90;;;;;;5129214;28;20043;-62
2022/05/05 09:19:44;;;;;;;2.20;0.70;;;15.60;48.60;;;;;;5130424;27;20127;-65
2022/05/05 09:22:11;;;;;;;1.38;0.47;;;15.60;47.90;;;;;;5129362;28;20175;-62
2022/05/05 09:24:40;;;;;;;1.98;0.80;;;15.70;47.90;;;;;;5129018;28;20049;-65
2022/05/05 09:32:45;;;;;;;1.83;0.40;;;15.90;47.40;;;;;;5089720;27;20758;-62
2022/05/05 09:37:52;;;;;;;2.15;0.65;;;15.90;47.30;;;;;;5130225;27;20382;-68
2022/05/05 09:40:24;;;;;;;1.50;0.80;;;15.90;47.10;;;;;;5128977;28;20039;-68
2022/05/05 09:42:51;;;;;;;2.80;0.98;;;15.90;47.00;;;;;;5129210;28;20043;-62
2022/05/05 09:48:03;;;;;;;1.88;0.40;;;16.00;47.10;;;;;;5150957;27;20349;-69
2022/05/05 09:50:31;;;;;;;2.55;0.60;;;16.00;47.00;;;;;;5112116;28;20039;-65
2022/05/05 09:58:35;;;;;;;2.65;0.50;;;16.00;46.70;;;;;;5111618;28;20513;-62
2022/05/05 10:01:05;;;;;;;1.10;0.63;;;16.00;46.70;;;;;;5130008;28;20386;-65
2022/05/05 10:04:00;;;;;;;1.05;0.40;;;16.10;46.70;;;;;;5111959;28;20043;-69
2022/05/05 10:06:35;;;;;;;2.35;0.75;;;16.10;46.70;;;;;;5111500;28;20396;-71
2022/05/05 10:11:41;;;;;;;1.85;0.55;;;16.10;46.60;;;;;;5089367;28;20454;-70
2022/05/05 10:14:10;;;;;;;2.58;0.47;;;16.10;46.70;;;;;;5105076;28;20052;-69
2022/05/05 10:16:37;;;;;;;1.80;0.60;;;16.00;46.70;;;;;;5088229;28;20442;-70
2022/05/05 10:19:04;;;;;;;1.58;0.43;;;16.00;46.80;;;;;;5088085;28;20051;-65
2022/05/05 10:24:21;;;;;;;1.92;0.50;;;16.00;46.70;;;;;;5130339;27;20444;-71
2022/05/05 10:26:51;;;;;;;1.35;0.65;;;16.00;46.80;;;;;;5130195;27;20040;-67
2022/05/05 10:32:19;;;;;;;1.73;0.93;;;16.10;46.80;;;;;;5130284;27;20357;-70
2022/05/05 10:34:51;;;;;;;1.95;0.70;;;16.00;46.80;;;;;;5128940;28;20529;-68
2022/05/05 10:37:20;;;;;;;1.50;0.60;;;16.00;46.90;;;;;;5129172;28;20110;-68
2022/05/05 10:50:43;;;;;;;1.55;0.55;;;16.00;47.00;;;;;;5150946;27;20101;-70
2022/05/05 10:53:37;;;;;;;2.38;0.73;;;16.00;47.00;;;;;;5129097;28;20074;-64
2022/05/05 10:56:05;;;;;;;1.02;0.50;;;16.00;47.00;;;;;;5128914;28;20036;-62
2022/05/05 11:09:59;;;;;;;1.85;0.50;;;16.00;47.00;;;;;;5130314;27;20363;-66
2022/05/05 11:12:31;;;;;;;1.35;0.63;;;16.00;46.90;;;;;;5128895;28;20054;-70
2022/05/05 11:21:33;;;;;;;0.90;0.43;;;16.00;46.90;;;;;;5128959;28;20055;-70
2022/05/05 11:23:49;;;;;;;1.45;0.65;;;16.10;46.90;;;;;;5128532;28;20050;-62
2022/05/05 11:26:17;;;;;;;2.13;0.60;;;16.00;46.90;;;;;;5129069;28;20104;-70
2022/05/05 11:28:44;;;;;;;1.75;0.50;;;16.00;46.90;;;;;;5130029;27;20039;-71
2022/05/05 11:31:20;;;;;;;1.15;0.63;;;16.00;47.00;;;;;;5130012;27;20039;-70
2022/05/05 11:33:48;;;;;;;1.00;0.43;;;16.00;47.00;;;;;;5129812;27;20043;-62
2022/05/05 11:36:14;;;;;;;0.98;0.52;;;16.00;47.10;;;;;;5128503;28;20499;-62
2022/05/05 11:38:41;;;;;;;1.25;0.63;;;16.00;47.10;;;;;;5128629;28;20047;-70
2022/05/05 11:41:07;;;;;;;2.03;0.60;;;16.00;47.00;;;;;;5128962;27;20130;-64
2022/05/05 11:46:20;;;;;;;1.40;0.60;;;16.00;47.00;;;;;;5128104;28;20039;-70
2022/05/05 11:48:55;;;;;;;1.73;0.60;;;16.00;47.00;;;;;;5129448;27;20043;-73
2022/05/05 11:51:25;;;;;;;0.90;0.50;;;16.00;47.00;;;;;;5128543;28;20035;-72
2022/05/05 11:54:10;;;;;;;1.02;0.50;;;16.00;47.00;;;;;;5128662;28;20105;-71
2022/05/05 11:56:42;;;;;;;1.67;0.60;;;16.00;47.00;;;;;;5129502;27;20043;-72
2022/05/05 12:02:00;;;;;;;1.30;0.60;;;16.00;47.10;;;;;;5128130;27;20126;-72
2022/05/05 12:04:27;;;;;;;1.00;0.50;;;16.00;47.10;;;;;;5128202;28;20059;-72
2022/05/05 12:06:53;;;;;;;1.90;0.52;;;16.00;47.20;;;;;;5127929;28;20054;-72
2022/05/05 12:09:20;;;;;;;1.00;0.65;;;16.00;47.20;;;;;;5128670;28;20055;-64
2022/05/05 12:11:46;;;;;;;0.90;0.38;;;16.00;47.20;;;;;;5127781;28;20039;-72
2022/05/05 12:14:13;;;;;;;1.83;0.70;;;16.00;47.30;;;;;;5129007;27;20043;-72
2022/05/05 12:16:39;;;;;;;0.65;0.40;;;16.00;47.40;;;;;;5128025;28;20043;-72
2022/05/05 12:19:14;;;;;;;2.17;0.60;;;16.00;47.30;;;;;;5128071;28;20383;-68
2022/05/05 12:21:57;;;;;;;1.35;0.60;;;16.10;47.40;;;;;;5114881;28;20047;-72
2022/05/05 12:24:24;;;;;;;1.20;0.38;;;16.10;47.30;;;;;;5115737;27;20078;-72
2022/05/05 12:27:06;;;;;;;1.38;0.40;;;16.10;47.30;;;;;;5114454;28;20339;-68
2022/05/05 12:29:43;;;;;;;2.33;0.70;;;16.10;47.30;;;;;;5113667;28;20048;-64
2022/05/05 12:35:02;;;;;;;1.35;0.60;;;16.10;47.40;;;;;;5130143;27;20386;-70
2022/05/05 12:37:28;;;;;;;1.00;0.50;;;16.10;47.30;;;;;;5128871;28;20061;-70
2022/05/05 12:40:04;;;;;;;1.65;0.85;;;16.10;47.30;;;;;;5129108;28;20039;-70
2022/05/05 12:42:49;;;;;;;0.93;0.43;;;16.10;47.30;;;;;;5129193;28;20085;-70
2022/05/05 12:45:20;;;;;;;1.15;0.50;;;16.10;47.30;;;;;;5128876;28;20051;-70
2022/05/05 12:47:47;;;;;;;0.80;0.40;;;16.20;47.30;;;;;;5128975;27;20047;-68
2022/05/05 13:01:43;;;;;;;1.45;0.60;;;16.30;47.20;;;;;;5111834;28;20108;-69
2022/05/05 13:04:12;;;;;;;0.93;0.52;;;16.30;47.20;;;;;;5111885;28;20039;-70
2022/05/05 13:06:39;;;;;;;1.35;0.50;;;16.30;47.10;;;;;;5111660;28;20510;-70
2022/05/05 13:09:08;;;;;;;1.83;0.63;;;16.30;47.10;;;;;;5111783;28;20039;-70
2022/05/05 13:11:34;;;;;;;1.00;0.50;;;16.40;47.10;;;;;;5111710;28;20376;-70
2022/05/05 13:14:02;;;;;;;1.42;0.50;;;16.30;47.10;;;;;;5111497;28;20043;-70
2022/05/05 13:16:29;;;;;;;1.45;0.50;;;16.30;47.10;;;;;;5111423;28;20075;-64
2022/05/05 13:18:58;;;;;;;1.48;0.70;;;16.30;47.20;;;;;;5111306;28;20110;-70
2022/05/05 13:21:27;;;;;;;1.23;0.47;;;16.40;47.20;;;;;;5111344;28;20047;-72
2022/05/05 13:23:53;;;;;;;1.85;0.70;;;16.40;47.20;;;;;;5129887;28;20074;-70
2022/05/05 13:26:18;;;;;;;0.85;0.60;;;16.40;47.10;;;;;;5111513;28;20459;-70
2022/05/05 13:28:44;;;;;;;2.53;0.60;;;16.40;47.10;;;;;;5111311;28;20398;-70
2022/05/05 13:31:10;;;;;;;0.82;0.50;;;16.50;47.10;;;;;;5111096;28;20039;-70
2022/05/05 13:33:35;;;;;;;2.10;0.50;;;16.50;47.10;;;;;;5129800;28;20115;-69
2022/05/05 13:36:01;;;;;;;1.30;0.50;;;16.50;47.10;;;;;;5110992;28;20043;-70
2022/05/05 13:38:30;;;;;;;1.83;0.50;;;16.50;47.10;;;;;;5111082;28;20087;-70
2022/05/05 13:40:56;;;;;;;1.30;0.57;;;16.50;47.10;;;;;;5111084;28;20122;-71
2022/05/05 13:43:22;;;;;;;0.70;0.50;;;16.50;47.00;;;;;;5110985;28;20119;-70
2022/05/05 13:45:48;;;;;;;1.98;0.77;;;16.50;46.90;;;;;;5111256;28;20391;-71
2022/05/05 13:48:14;;;;;;;1.98;0.77;;;16.50;46.90;;;;;;5129197;28;20040;-70
2022/05/05 13:50:39;;;;;;;1.13;0.50;;;16.50;46.90;;;;;;5110890;28;20039;-71
2022/05/05 13:53:05;;;;;;;0.90;0.45;;;16.60;46.90;;;;;;5110458;28;20051;-70
2022/05/05 13:55:34;;;;;;;0.95;0.30;;;16.60;46.90;;;;;;5129607;28;20038;-71
2022/05/05 13:58:01;;;;;;;1.27;0.63;;;16.60;46.80;;;;;;5129114;28;20039;-71
2022/05/05 14:00:30;;;;;;;0.85;0.50;;;16.60;46.90;;;;;;5110843;28;20449;-70
2022/05/05 14:02:57;;;;;;;0.82;0.40;;;16.60;46.90;;;;;;5124397;28;20039;-70
2022/05/05 14:05:25;;;;;;;1.20;0.55;;;16.60;47.00;;;;;;5097251;28;20047;-71
2022/05/05 14:13:22;;;;;;;0.90;0.60;;;16.50;47.30;;;;;;5096672;28;20055;-69
2022/05/05 14:15:48;;;;;;;0.82;0.43;;;16.50;47.40;;;;;;5115093;28;20046;-70
2022/05/05 14:18:16;;;;;;;1.13;0.60;;;16.50;47.40;;;;;;5096484;28;20100;-70
2022/05/05 14:20:42;;;;;;;1.63;0.75;;;16.40;47.50;;;;;;5096617;28;20127;-70
2022/05/05 14:23:08;;;;;;;0.95;0.47;;;16.40;47.60;;;;;;5096518;28;20039;-65
2022/05/05 14:25:34;;;;;;;0.73;0.45;;;16.40;47.60;;;;;;5096604;28;20053;-70
2022/05/05 14:28:00;;;;;;;0.90;0.60;;;16.40;47.70;;;;;;5114738;28;20531;-66
2022/05/05 14:30:26;;;;;;;1.13;0.50;;;16.40;47.70;;;;;;5096683;28;20054;-62
2022/05/05 14:32:51;;;;;;;1.13;0.68;;;16.40;47.80;;;;;;5096168;28;20051;-62
2022/05/05 14:35:17;;;;;;;3.38;0.98;;;16.40;47.80;;;;;;5096384;28;20039;-71